Time;durP1;ratioP1;P1;durP2;ratioP2;P2;SDS_P1;SDS_P2;PMS_P1;PMS_P2;Temp;Humidity;BMP_temperature;BMP_pressure;BME280_temperature;BME280_humidity;BME280_pressure;Samples;Min_cycle;Max_cycle;Signal;HPM_P1;HPM_P2
2024/01/22 00:00:37;;;;;;;25.15;7.75;;;2.80;95.80;;;;;;5070511;28;20020;-60
2024/01/22 00:03:03;;;;;;;16.77;7.50;;;2.80;95.90;;;;;;5070162;28;20047;-61
2024/01/22 00:05:29;;;;;;;22.40;7.78;;;2.80;95.90;;;;;;5088318;28;20031;-60
2024/01/22 00:07:54;;;;;;;20.88;7.13;;;2.80;95.90;;;;;;5088371;28;20080;-61
2024/01/22 00:10:20;;;;;;;20.55;7.18;;;2.70;95.80;;;;;;5088219;28;20468;-61
2024/01/22 00:12:45;;;;;;;24.27;7.53;;;2.80;95.90;;;;;;5053448;28;20028;-60
2024/01/22 00:15:11;;;;;;;21.83;7.38;;;2.70;95.90;;;;;;5088056;28;20021;-61
2024/01/22 00:17:36;;;;;;;18.60;6.70;;;2.70;95.90;;;;;;5088140;28;20028;-60
2024/01/22 00:20:02;;;;;;;20.05;7.43;;;2.80;95.90;;;;;;5070039;28;20025;-60
2024/01/22 00:22:28;;;;;;;20.75;7.28;;;2.70;95.90;;;;;;5070007;28;20500;-60
2024/01/22 00:24:53;;;;;;;20.70;7.53;;;2.70;95.90;;;;;;5069936;28;20028;-60
2024/01/22 00:27:19;;;;;;;21.92;6.88;;;2.70;95.90;;;;;;5069999;28;20032;-60
2024/01/22 00:29:44;;;;;;;26.40;7.93;;;2.70;95.90;;;;;;5070056;28;20043;-60
2024/01/22 00:32:11;;;;;;;18.75;7.43;;;2.70;95.80;;;;;;5069870;28;20029;-60
2024/01/22 00:34:36;;;;;;;18.52;6.90;;;2.70;95.80;;;;;;5053187;28;20100;-60
2024/01/22 00:37:02;;;;;;;21.88;6.93;;;2.70;95.80;;;;;;5069580;28;20082;-60
2024/01/22 00:39:27;;;;;;;17.40;6.55;;;2.70;95.90;;;;;;5069723;28;20121;-60
2024/01/22 00:41:53;;;;;;;17.63;6.82;;;2.70;95.90;;;;;;5069676;28;20017;-60
2024/01/22 00:44:18;;;;;;;19.83;7.35;;;2.70;95.90;;;;;;5087835;28;20025;-60
2024/01/22 00:46:44;;;;;;;22.38;6.82;;;2.70;95.90;;;;;;5087711;28;20025;-60
2024/01/22 00:49:09;;;;;;;16.48;7.07;;;2.70;95.90;;;;;;5088051;28;20519;-60
2024/01/22 00:51:36;;;;;;;14.52;6.80;;;2.70;95.90;;;;;;5069689;28;20024;-60
2024/01/22 00:54:02;;;;;;;15.30;6.28;;;2.70;95.90;;;;;;5069810;28;20032;-60
2024/01/22 00:56:28;;;;;;;17.75;6.70;;;2.70;95.90;;;;;;5087402;28;20469;-60
2024/01/22 00:58:53;;;;;;;12.80;6.20;;;2.70;95.90;;;;;;5069511;28;20036;-60
2024/01/22 01:01:19;;;;;;;15.50;6.70;;;2.70;95.90;;;;;;5069294;28;20028;-60
2024/01/22 01:03:44;;;;;;;15.77;6.75;;;2.60;95.90;;;;;;5069236;28;20361;-60
2024/01/22 01:06:10;;;;;;;16.27;6.90;;;2.60;95.90;;;;;;5069528;28;20021;-60
2024/01/22 01:08:35;;;;;;;16.55;6.50;;;2.60;95.90;;;;;;5087595;28;20054;-61
2024/01/22 01:11:01;;;;;;;16.80;6.75;;;2.60;95.90;;;;;;5086949;28;20039;-60
2024/01/22 01:13:27;;;;;;;14.25;6.15;;;2.60;95.90;;;;;;5069185;28;20052;-61
2024/01/22 01:15:52;;;;;;;17.08;6.93;;;2.60;95.90;;;;;;5086907;28;20039;-60
2024/01/22 01:18:18;;;;;;;18.80;6.75;;;2.60;95.90;;;;;;5069018;28;20035;-60
2024/01/22 01:20:43;;;;;;;17.77;6.00;;;2.60;95.90;;;;;;5068917;28;20024;-60
2024/01/22 01:23:09;;;;;;;17.55;6.75;;;2.60;95.90;;;;;;5068922;28;20102;-60
2024/01/22 01:25:36;;;;;;;17.30;6.03;;;2.60;95.90;;;;;;5086624;28;20043;-60
2024/01/22 01:28:01;;;;;;;14.77;6.82;;;2.60;95.90;;;;;;5086724;28;20032;-61
2024/01/22 01:30:27;;;;;;;13.73;5.85;;;2.60;95.90;;;;;;5052077;28;20059;-60
2024/01/22 01:32:53;;;;;;;17.27;6.57;;;2.60;95.90;;;;;;5086584;28;20036;-60
2024/01/22 01:35:19;;;;;;;18.13;6.43;;;2.60;95.90;;;;;;5068606;28;20146;-61
2024/01/22 01:37:44;;;;;;;13.25;5.60;;;2.60;95.90;;;;;;5068967;28;20477;-61
2024/01/22 01:40:10;;;;;;;14.25;6.30;;;2.60;95.90;;;;;;5086431;28;20473;-60
2024/01/22 01:42:36;;;;;;;9.57;5.68;;;2.60;95.90;;;;;;5070667;28;20082;-60
2024/01/22 01:45:02;;;;;;;15.48;6.00;;;2.60;95.90;;;;;;5086645;28;20021;-58
2024/01/22 01:47:27;;;;;;;19.95;6.32;;;2.60;95.90;;;;;;5069200;28;20032;-60
2024/01/22 01:49:53;;;;;;;20.00;6.47;;;2.50;95.90;;;;;;5068437;28;20044;-61
2024/01/22 01:52:19;;;;;;;17.17;6.05;;;2.60;95.90;;;;;;5068623;28;20028;-60
2024/01/22 01:54:45;;;;;;;10.73;6.00;;;2.50;95.90;;;;;;5068512;28;20504;-60
2024/01/22 01:57:11;;;;;;;13.70;5.90;;;2.50;95.90;;;;;;5051588;28;20058;-60
2024/01/22 01:59:38;;;;;;;14.07;6.78;;;2.50;95.90;;;;;;5068303;28;20029;-61
2024/01/22 02:02:03;;;;;;;16.05;5.88;;;2.50;95.90;;;;;;5068436;28;20041;-60
2024/01/22 02:04:30;;;;;;;11.25;5.30;;;2.50;95.90;;;;;;5086233;28;20036;-60
2024/01/22 02:06:56;;;;;;;13.65;5.82;;;2.60;95.90;;;;;;5068364;28;20076;-61
2024/01/22 02:09:21;;;;;;;10.18;5.00;;;2.50;95.90;;;;;;5068339;28;20047;-60
2024/01/22 02:11:47;;;;;;;13.77;6.38;;;2.50;95.90;;;;;;5068243;28;20085;-60
2024/01/22 02:14:12;;;;;;;11.27;5.03;;;2.50;95.90;;;;;;5086095;28;20032;-60
2024/01/22 02:16:38;;;;;;;13.75;5.70;;;2.50;95.90;;;;;;5086335;28;20024;-60
2024/01/22 02:19:03;;;;;;;10.27;5.10;;;2.50;95.90;;;;;;5087790;28;20441;-60
2024/01/22 02:21:29;;;;;;;13.77;5.88;;;2.50;95.90;;;;;;5055466;28;20062;-60
2024/01/22 02:23:54;;;;;;;12.05;5.72;;;2.50;95.90;;;;;;5072498;28;20056;-60
2024/01/22 02:26:20;;;;;;;13.05;5.60;;;2.50;95.90;;;;;;5072243;28;20025;-60
2024/01/22 02:28:45;;;;;;;10.73;5.10;;;2.50;95.90;;;;;;5090148;28;20497;-61
2024/01/22 02:31:11;;;;;;;14.65;5.65;;;2.50;95.90;;;;;;5072239;28;20024;-61
2024/01/22 02:33:36;;;;;;;12.10;5.30;;;2.50;95.90;;;;;;5055576;28;20029;-60
2024/01/22 02:36:02;;;;;;;12.45;5.15;;;2.50;95.90;;;;;;5089924;28;20067;-60
2024/01/22 02:38:28;;;;;;;13.60;5.45;;;2.40;95.90;;;;;;5071915;28;20036;-61
2024/01/22 02:40:53;;;;;;;12.82;5.35;;;2.50;95.90;;;;;;5072004;28;20047;-60
2024/01/22 02:43:19;;;;;;;9.98;4.63;;;2.50;95.90;;;;;;5071877;28;20063;-60
2024/01/22 02:45:44;;;;;;;13.27;6.05;;;2.40;95.90;;;;;;5089887;28;20043;-60
2024/01/22 02:48:10;;;;;;;11.10;5.55;;;2.50;95.90;;;;;;5072041;28;20025;-60
2024/01/22 02:50:35;;;;;;;13.13;5.30;;;2.50;96.00;;;;;;5089782;28;20024;-61
2024/01/22 02:53:01;;;;;;;7.88;4.78;;;2.50;96.00;;;;;;5089660;28;20081;-60
2024/01/22 02:55:26;;;;;;;10.68;5.28;;;2.50;96.00;;;;;;5089683;28;20020;-61
2024/01/22 02:57:52;;;;;;;9.90;4.72;;;2.50;96.00;;;;;;5071687;28;20384;-61
2024/01/22 03:00:18;;;;;;;11.23;5.03;;;2.40;95.90;;;;;;5089522;28;20028;-60
2024/01/22 03:02:43;;;;;;;12.57;4.95;;;2.50;96.00;;;;;;5089425;28;20051;-60
2024/01/22 03:05:09;;;;;;;11.93;4.90;;;2.50;96.00;;;;;;5071435;28;20029;-60
2024/01/22 03:07:34;;;;;;;14.93;5.07;;;2.40;95.90;;;;;;5054629;28;20032;-60
2024/01/22 03:10:00;;;;;;;9.07;4.30;;;2.50;96.00;;;;;;5071795;28;20025;-60
2024/01/22 03:12:25;;;;;;;9.98;5.20;;;2.40;95.90;;;;;;5089402;28;20530;-60
2024/01/22 03:14:51;;;;;;;11.15;4.85;;;2.50;96.00;;;;;;5071486;28;20088;-60
2024/01/22 03:17:16;;;;;;;10.52;5.03;;;2.40;96.00;;;;;;5054633;28;20028;-60
2024/01/22 03:19:42;;;;;;;9.38;4.97;;;2.40;96.00;;;;;;5071328;28;20035;-59
2024/01/22 03:22:08;;;;;;;13.18;5.55;;;2.40;96.00;;;;;;5071255;28;20024;-60
2024/01/22 03:24:33;;;;;;;14.63;5.00;;;2.50;96.00;;;;;;5089045;28;20048;-60
2024/01/22 03:26:59;;;;;;;9.85;5.00;;;2.40;96.00;;;;;;5071218;28;20080;-59
2024/01/22 03:29:24;;;;;;;10.57;4.55;;;2.40;96.00;;;;;;5071338;28;20032;-60
2024/01/22 03:31:50;;;;;;;12.75;4.93;;;2.40;96.00;;;;;;5088840;28;20039;-60
2024/01/22 03:34:15;;;;;;;11.30;4.85;;;2.40;96.00;;;;;;5071334;28;20028;-60
2024/01/22 03:36:41;;;;;;;8.38;4.65;;;2.40;96.00;;;;;;5070940;28;20032;-60
2024/01/22 03:39:06;;;;;;;7.95;4.25;;;2.40;95.90;;;;;;5070941;28;20495;-60
2024/01/22 03:41:33;;;;;;;9.73;4.55;;;2.40;95.90;;;;;;5088938;28;20020;-60
2024/01/22 03:43:58;;;;;;;12.05;5.43;;;2.40;96.00;;;;;;5070937;28;20036;-60
2024/01/22 03:46:24;;;;;;;10.10;4.25;;;2.40;96.00;;;;;;5070976;28;20084;-60
2024/01/22 03:48:50;;;;;;;8.65;4.90;;;2.40;96.00;;;;;;5088726;28;20099;-60
2024/01/22 03:51:15;;;;;;;9.48;4.63;;;2.50;96.00;;;;;;5089105;28;20032;-60
2024/01/22 03:53:41;;;;;;;10.40;4.57;;;2.40;96.00;;;;;;5070969;28;20025;-60
2024/01/22 03:56:06;;;;;;;7.05;4.60;;;2.40;96.00;;;;;;5088321;28;20033;-60
2024/01/22 03:58:38;;;;;;;11.18;4.35;;;2.40;96.00;;;;;;5070446;28;20024;-60
2024/01/22 04:01:04;;;;;;;7.85;4.57;;;2.40;96.00;;;;;;5054578;28;20040;-61
2024/01/22 04:03:31;;;;;;;7.80;4.38;;;2.40;96.00;;;;;;5088374;28;20032;-60
2024/01/22 04:05:57;;;;;;;8.60;4.05;;;2.40;96.00;;;;;;5070669;28;20025;-60
2024/01/22 04:08:23;;;;;;;9.77;4.13;;;2.40;96.00;;;;;;5053846;28;20024;-60
2024/01/22 04:10:48;;;;;;;6.35;4.25;;;2.40;96.00;;;;;;5070368;28;20476;-60
2024/01/22 04:13:14;;;;;;;6.88;4.72;;;2.40;96.10;;;;;;5070108;28;20031;-61
2024/01/22 04:15:39;;;;;;;8.95;4.35;;;2.40;96.10;;;;;;5070122;28;20387;-60
2024/01/22 04:18:06;;;;;;;7.97;4.18;;;2.40;96.00;;;;;;5088158;28;20031;-60
2024/01/22 04:20:32;;;;;;;8.52;4.60;;;2.40;96.00;;;;;;5070436;28;20025;-60
2024/01/22 04:22:57;;;;;;;9.63;4.28;;;2.40;96.00;;;;;;5070289;28;20493;-60
2024/01/22 04:25:23;;;;;;;9.88;3.75;;;2.40;96.00;;;;;;5070121;28;20082;-60
2024/01/22 04:27:48;;;;;;;6.75;4.40;;;2.40;96.00;;;;;;5070098;28;20028;-61
2024/01/22 04:30:14;;;;;;;7.97;3.95;;;2.40;96.10;;;;;;5069938;28;20035;-60
2024/01/22 04:32:40;;;;;;;7.63;4.43;;;2.40;96.30;;;;;;5069743;28;20029;-60
2024/01/22 04:35:07;;;;;;;8.55;4.15;;;2.40;96.00;;;;;;5069889;28;20159;-60
2024/01/22 04:37:33;;;;;;;10.88;4.00;;;2.40;96.10;;;;;;5069942;28;20058;-61
2024/01/22 04:40:11;;;;;;;5.80;3.83;;;2.40;96.10;;;;;;5087650;28;20048;-61
2024/01/22 04:42:37;;;;;;;8.15;4.25;;;2.40;96.10;;;;;;5087170;28;20088;-60
2024/01/22 04:45:03;;;;;;;7.40;3.80;;;2.40;96.10;;;;;;5087357;28;20027;-59
2024/01/22 04:47:29;;;;;;;6.45;3.72;;;2.40;96.10;;;;;;5087529;28;20035;-51
2024/01/22 04:49:54;;;;;;;7.38;3.78;;;2.40;96.10;;;;;;5087505;28;20021;-51
2024/01/22 04:52:21;;;;;;;6.65;3.63;;;2.40;96.00;;;;;;5087530;28;20066;-51
2024/01/22 04:54:47;;;;;;;10.10;4.10;;;2.40;96.00;;;;;;5069862;28;20056;-51
2024/01/22 04:57:13;;;;;;;8.13;3.95;;;2.40;96.00;;;;;;5069556;28;20024;-51
2024/01/22 04:59:39;;;;;;;6.05;3.67;;;2.40;96.00;;;;;;5069379;28;20036;-51
2024/01/22 05:02:04;;;;;;;8.88;3.78;;;2.40;96.10;;;;;;5087202;28;20029;-51
2024/01/22 05:04:30;;;;;;;6.10;4.03;;;2.40;96.00;;;;;;5069003;28;20033;-51
2024/01/22 05:06:55;;;;;;;9.40;3.83;;;2.40;96.10;;;;;;5069202;28;20031;-51
2024/01/22 05:09:21;;;;;;;5.40;3.60;;;2.40;96.10;;;;;;5069481;28;20111;-51
2024/01/22 05:11:46;;;;;;;8.27;4.28;;;2.40;96.10;;;;;;5087064;28;20024;-51
2024/01/22 05:14:12;;;;;;;7.80;3.40;;;2.40;96.10;;;;;;5068850;28;20081;-51
2024/01/22 05:16:37;;;;;;;9.38;4.10;;;2.40;96.10;;;;;;5068878;28;20041;-51
2024/01/22 05:19:03;;;;;;;8.43;3.78;;;2.40;96.10;;;;;;5069050;28;20111;-51
2024/01/22 05:21:29;;;;;;;8.07;4.30;;;2.40;96.10;;;;;;5068611;28;20033;-51
2024/01/22 05:23:54;;;;;;;7.18;3.95;;;2.40;96.10;;;;;;5068890;28;20077;-51
2024/01/22 05:26:20;;;;;;;4.75;3.30;;;2.40;96.10;;;;;;5069072;28;20017;-51
2024/01/22 05:28:46;;;;;;;7.03;3.90;;;2.40;96.40;;;;;;5086772;28;20489;-52
2024/01/22 05:31:11;;;;;;;6.43;3.50;;;2.40;96.10;;;;;;5068718;28;20059;-51
2024/01/22 05:33:37;;;;;;;6.55;3.55;;;2.40;96.10;;;;;;5086712;28;20033;-51
2024/01/22 05:36:02;;;;;;;13.30;3.65;;;2.40;96.20;;;;;;5051826;28;20097;-51
2024/01/22 05:38:28;;;;;;;6.00;3.63;;;2.40;96.20;;;;;;5068623;28;20029;-51
2024/01/22 05:40:54;;;;;;;12.60;3.65;;;2.40;96.10;;;;;;5086571;28;20036;-51
2024/01/22 05:43:19;;;;;;;4.80;3.33;;;2.40;96.10;;;;;;5068613;28;20035;-51
2024/01/22 05:45:45;;;;;;;5.55;3.72;;;2.40;96.20;;;;;;5068675;28;20028;-51
2024/01/22 05:48:11;;;;;;;6.68;3.78;;;2.40;96.20;;;;;;5068379;28;20029;-51
2024/01/22 05:50:36;;;;;;;7.28;3.95;;;2.40;96.20;;;;;;5068385;28;20031;-51
2024/01/22 05:53:02;;;;;;;6.03;3.40;;;2.50;96.20;;;;;;5085171;28;20037;-51
2024/01/22 05:55:28;;;;;;;7.72;3.50;;;2.50;96.20;;;;;;5051600;28;20142;-51
2024/01/22 05:57:54;;;;;;;6.57;3.70;;;2.50;96.20;;;;;;5086302;28;20025;-51
2024/01/22 06:00:20;;;;;;;10.27;3.72;;;2.50;96.20;;;;;;5086115;28;20028;-51
2024/01/22 06:02:45;;;;;;;10.95;4.60;;;2.50;96.20;;;;;;5068161;28;20546;-51
2024/01/22 06:05:12;;;;;;;13.57;3.92;;;2.50;96.30;;;;;;5068111;28;20081;-51
2024/01/22 06:07:37;;;;;;;15.70;4.28;;;2.50;96.40;;;;;;5051798;28;20032;-51
2024/01/22 06:10:05;;;;;;;18.75;4.75;;;2.50;96.40;;;;;;5067787;28;20055;-51
2024/01/22 06:12:30;;;;;;;26.17;5.18;;;2.50;96.40;;;;;;5068317;28;20050;-51
2024/01/22 06:14:57;;;;;;;11.73;4.70;;;2.50;96.40;;;;;;5068159;28;20033;-51
2024/01/22 06:17:23;;;;;;;20.48;5.13;;;2.50;96.50;;;;;;5068387;28;20111;-51
2024/01/22 06:19:49;;;;;;;19.70;4.70;;;2.50;96.50;;;;;;5068036;28;20052;-51
2024/01/22 06:22:15;;;;;;;24.85;5.35;;;2.50;96.70;;;;;;5067924;28;20059;-51
2024/01/22 06:24:40;;;;;;;47.97;7.72;;;2.50;96.90;;;;;;5068171;28;20031;-51
2024/01/22 06:27:06;;;;;;;34.25;6.82;;;2.60;97.10;;;;;;5051492;28;20024;-51
2024/01/22 06:29:35;;;;;;;48.15;7.50;;;2.50;97.20;;;;;;5068183;28;20039;-51
2024/01/22 06:32:01;;;;;;;30.55;6.63;;;2.60;97.30;;;;;;5085956;28;20445;-51
2024/01/22 06:34:26;;;;;;;50.90;6.88;;;2.60;97.30;;;;;;5051422;28;20035;-51
2024/01/22 06:36:52;;;;;;;33.53;6.25;;;2.60;97.30;;;;;;5085523;28;20051;-51
2024/01/22 06:39:17;;;;;;;31.13;6.38;;;2.60;97.40;;;;;;5080085;28;20052;-51
2024/01/22 06:41:43;;;;;;;38.13;6.53;;;2.60;97.40;;;;;;5085895;28;20388;-51
2024/01/22 06:44:09;;;;;;;30.95;6.22;;;2.60;97.50;;;;;;5067041;28;20025;-51
2024/01/22 06:46:34;;;;;;;49.70;6.30;;;2.60;97.60;;;;;;5085967;28;20086;-50
2024/01/22 06:49:00;;;;;;;43.10;7.53;;;2.60;97.60;;;;;;5085125;28;20516;-51
2024/01/22 06:51:25;;;;;;;39.03;6.13;;;2.60;97.60;;;;;;5084481;28;20028;-51
2024/01/22 06:53:51;;;;;;;24.98;5.70;;;2.60;97.60;;;;;;5067907;28;20043;-51
2024/01/22 06:56:16;;;;;;;38.67;6.03;;;2.60;97.60;;;;;;5085534;28;20062;-51
2024/01/22 06:58:42;;;;;;;32.95;6.60;;;2.60;97.70;;;;;;5067722;28;20029;-51
2024/01/22 07:01:07;;;;;;;26.83;5.53;;;2.70;97.70;;;;;;5050990;28;20495;-51
2024/01/22 07:03:35;;;;;;;35.60;6.97;;;2.60;97.70;;;;;;5084632;28;20473;-51
2024/01/22 07:06:00;;;;;;;30.58;7.18;;;2.60;97.90;;;;;;5087823;28;20025;-52
2024/01/22 07:08:26;;;;;;;18.63;5.85;;;2.70;97.90;;;;;;5088526;28;20063;-51
2024/01/22 07:10:51;;;;;;;26.83;5.55;;;2.70;97.90;;;;;;5089231;28;20024;-51
2024/01/22 07:13:17;;;;;;;29.08;6.65;;;2.70;97.80;;;;;;5089375;28;20595;-51
2024/01/22 07:15:43;;;;;;;20.40;5.68;;;2.70;97.80;;;;;;5089440;28;20028;-51
2024/01/22 07:18:08;;;;;;;22.75;5.55;;;2.70;97.70;;;;;;5087902;28;20070;-51
2024/01/22 07:20:34;;;;;;;26.95;5.75;;;2.70;97.70;;;;;;5071472;28;20028;-51
2024/01/22 07:23:03;;;;;;;21.90;5.85;;;2.70;97.70;;;;;;5086200;28;20056;-51
2024/01/22 07:25:31;;;;;;;22.02;5.40;;;2.70;97.70;;;;;;5079788;28;20107;-51
2024/01/22 07:27:57;;;;;;;19.17;5.78;;;2.80;97.70;;;;;;5089142;28;20020;-51
2024/01/22 07:30:22;;;;;;;22.17;5.47;;;2.80;97.80;;;;;;5086266;28;20032;-51
2024/01/22 07:32:48;;;;;;;24.83;6.38;;;2.80;97.80;;;;;;5089113;28;20028;-51
2024/01/22 07:35:13;;;;;;;31.33;5.95;;;2.80;97.80;;;;;;5088793;28;20111;-52
2024/01/22 07:37:44;;;;;;;23.17;5.85;;;2.80;97.80;;;;;;5087641;28;20044;-51
2024/01/22 07:40:10;;;;;;;12.65;5.00;;;2.80;97.80;;;;;;5071571;28;20039;-51
2024/01/22 07:42:36;;;;;;;23.13;4.72;;;2.80;97.90;;;;;;5088281;28;20028;-51
2024/01/22 07:45:03;;;;;;;20.38;6.28;;;2.90;98.00;;;;;;5053931;28;20021;-51
2024/01/22 07:47:29;;;;;;;18.38;5.10;;;2.80;98.00;;;;;;5071018;28;20021;-51
2024/01/22 07:49:54;;;;;;;14.73;5.43;;;2.90;98.00;;;;;;5070622;28;20035;-51
2024/01/22 07:52:21;;;;;;;14.98;4.93;;;2.90;97.90;;;;;;5087190;28;20039;-51
2024/01/22 07:54:47;;;;;;;18.02;4.80;;;2.90;97.80;;;;;;5077556;28;20036;-51
2024/01/22 07:57:12;;;;;;;18.63;4.95;;;2.90;97.90;;;;;;5099423;28;20024;-51
2024/01/22 07:59:38;;;;;;;16.23;4.70;;;2.90;98.00;;;;;;5090625;28;20119;-51
2024/01/22 08:02:04;;;;;;;11.50;4.45;;;2.90;98.20;;;;;;5087681;28;20069;-51
2024/01/22 08:04:33;;;;;;;16.35;4.60;;;2.90;98.20;;;;;;5089474;28;20039;-51
2024/01/22 08:07:03;;;;;;;13.73;4.63;;;2.90;98.30;;;;;;5075752;28;20095;-51
2024/01/22 08:09:29;;;;;;;16.13;4.20;;;3.00;98.30;;;;;;5070307;28;20032;-51
2024/01/22 08:11:55;;;;;;;14.10;4.93;;;3.00;98.40;;;;;;5054388;28;20046;-51
2024/01/22 08:14:21;;;;;;;14.15;4.00;;;3.00;98.30;;;;;;5098840;28;20165;-51
2024/01/22 08:16:46;;;;;;;15.02;5.03;;;3.00;98.30;;;;;;5081043;28;20031;-51
2024/01/22 08:19:12;;;;;;;11.25;4.13;;;3.00;98.20;;;;;;5091363;28;20417;-51
2024/01/22 08:21:38;;;;;;;11.00;4.05;;;3.00;98.20;;;;;;5085771;28;20098;-51
2024/01/22 08:24:03;;;;;;;13.50;4.30;;;3.10;98.20;;;;;;5085739;28;20036;-51
2024/01/22 08:26:29;;;;;;;12.35;3.70;;;3.10;98.10;;;;;;5067797;28;20065;-51
2024/01/22 08:28:54;;;;;;;13.13;3.78;;;3.10;98.10;;;;;;5077562;28;20020;-51
2024/01/22 08:31:20;;;;;;;8.75;3.20;;;3.10;98.00;;;;;;5084861;28;20078;-51
2024/01/22 08:33:46;;;;;;;16.55;3.85;;;3.10;97.90;;;;;;5084285;28;20045;-51
2024/01/22 08:36:11;;;;;;;13.65;3.88;;;3.10;97.90;;;;;;5084198;28;20028;-51
2024/01/22 08:38:37;;;;;;;16.10;3.13;;;3.10;98.00;;;;;;5085221;28;20028;-51
2024/01/22 08:41:08;;;;;;;13.38;3.63;;;3.10;97.90;;;;;;5069772;28;20032;-51
2024/01/22 08:43:33;;;;;;;13.10;3.42;;;3.20;97.90;;;;;;5086437;28;20021;-51
2024/01/22 08:45:59;;;;;;;9.30;3.63;;;3.20;97.90;;;;;;5086405;28;20078;-51
2024/01/22 08:48:25;;;;;;;15.38;3.35;;;3.20;97.90;;;;;;5087256;28;20099;-51
2024/01/22 08:50:51;;;;;;;13.18;4.05;;;3.20;98.00;;;;;;5087448;28;20137;-51
2024/01/22 08:53:16;;;;;;;8.60;3.00;;;3.20;98.00;;;;;;5086989;28;20064;-52
2024/01/22 08:55:43;;;;;;;13.05;3.60;;;3.30;97.90;;;;;;5057374;28;20032;-51
2024/01/22 08:58:09;;;;;;;6.75;2.78;;;3.30;97.80;;;;;;5069372;28;20047;-51
2024/01/22 09:00:35;;;;;;;9.85;2.92;;;3.30;97.70;;;;;;5052634;28;20059;-51
2024/01/22 09:03:01;;;;;;;8.23;3.08;;;3.30;97.70;;;;;;5053676;28;20086;-51
2024/01/22 09:05:26;;;;;;;8.75;3.40;;;3.40;97.60;;;;;;5086904;28;20028;-51
2024/01/22 09:07:52;;;;;;;10.50;2.90;;;3.30;97.50;;;;;;5069366;28;20029;-51
2024/01/22 09:10:18;;;;;;;14.98;4.20;;;3.40;97.40;;;;;;5087016;28;20016;-51
2024/01/22 09:12:43;;;;;;;12.65;3.00;;;3.40;97.40;;;;;;5087003;28;20035;-51
2024/01/22 09:15:10;;;;;;;14.73;3.10;;;3.40;97.40;;;;;;5052461;28;20027;-51
2024/01/22 09:17:36;;;;;;;6.57;3.05;;;3.40;97.40;;;;;;5086908;28;20029;-51
2024/01/22 09:20:04;;;;;;;11.30;2.70;;;3.50;97.70;;;;;;5035545;28;20103;-51
2024/01/22 09:22:29;;;;;;;11.50;2.95;;;3.50;97.40;;;;;;5086773;28;20024;-51
2024/01/22 09:24:55;;;;;;;8.43;3.20;;;3.50;97.30;;;;;;5068944;28;20020;-51
2024/01/22 09:27:20;;;;;;;10.95;2.80;;;3.50;97.10;;;;;;5068854;28;20029;-51
2024/01/22 09:29:46;;;;;;;9.93;3.22;;;3.50;97.10;;;;;;5086774;28;20052;-51
2024/01/22 09:32:12;;;;;;;12.25;3.33;;;3.50;97.00;;;;;;5086821;28;20040;-51
2024/01/22 09:34:38;;;;;;;9.80;3.00;;;3.60;97.00;;;;;;5052029;28;20026;-51
2024/01/22 09:37:04;;;;;;;7.35;2.95;;;3.60;97.00;;;;;;5068299;28;20032;-51
2024/01/22 09:39:30;;;;;;;9.38;3.03;;;3.60;97.00;;;;;;5086456;28;20028;-51
2024/01/22 09:41:58;;;;;;;5.65;2.58;;;3.70;97.00;;;;;;5086244;28;20048;-51
2024/01/22 09:44:25;;;;;;;7.20;3.03;;;3.70;97.10;;;;;;5070600;28;20024;-50
2024/01/22 09:46:50;;;;;;;9.43;2.60;;;3.70;97.10;;;;;;5041843;28;20021;-51
2024/01/22 09:49:16;;;;;;;7.03;2.50;;;3.70;97.00;;;;;;5068095;28;20033;-51
2024/01/22 09:51:45;;;;;;;10.60;2.78;;;3.80;96.90;;;;;;5051912;28;20032;-51
2024/01/22 09:54:11;;;;;;;13.43;3.25;;;3.80;96.80;;;;;;5051733;28;20035;-51
2024/01/22 09:56:37;;;;;;;9.98;4.30;;;3.80;96.90;;;;;;5068309;28;20028;-51
2024/01/22 09:59:10;;;;;;;11.95;2.60;;;3.80;96.80;;;;;;5051815;28;20035;-51
2024/01/22 10:01:35;;;;;;;16.30;2.95;;;3.90;96.90;;;;;;5052455;28;20057;-51
2024/01/22 10:04:01;;;;;;;9.90;2.78;;;3.90;96.90;;;;;;5051594;28;20048;-51
2024/01/22 10:06:26;;;;;;;7.85;2.67;;;3.90;97.00;;;;;;5062406;28;20063;-51
2024/01/22 10:08:58;;;;;;;9.15;2.95;;;3.90;97.10;;;;;;5067872;28;20059;-51
2024/01/22 10:11:25;;;;;;;7.55;2.80;;;4.00;97.10;;;;;;5084729;28;20302;-51
2024/01/22 10:13:50;;;;;;;12.75;3.67;;;4.00;97.00;;;;;;5048626;28;20089;-51
2024/01/22 10:16:19;;;;;;;10.10;2.95;;;4.00;96.90;;;;;;5071572;28;20481;-51
2024/01/22 10:19:00;;;;;;;16.23;2.78;;;4.10;96.70;;;;;;5083816;28;20472;-51
2024/01/22 10:21:26;;;;;;;7.07;2.92;;;4.10;96.70;;;;;;5098918;28;20047;-51
2024/01/22 10:23:58;;;;;;;13.02;3.05;;;4.10;96.80;;;;;;5074854;28;20033;-51
2024/01/22 10:26:24;;;;;;;12.90;3.30;;;4.10;96.80;;;;;;5069803;28;20028;-51
2024/01/22 10:28:50;;;;;;;14.82;3.75;;;4.20;96.60;;;;;;5073910;28;20061;-51
2024/01/22 10:31:16;;;;;;;13.65;2.88;;;4.20;96.80;;;;;;5070097;28;20048;-51
2024/01/22 10:33:41;;;;;;;15.18;3.90;;;4.20;96.90;;;;;;5075101;28;20154;-51
2024/01/22 10:36:17;;;;;;;16.30;3.15;;;4.30;97.00;;;;;;5068896;28;20035;-51
2024/01/22 10:38:47;;;;;;;20.85;2.90;;;4.30;97.00;;;;;;5067428;28;20024;-51
2024/01/22 10:41:19;;;;;;;23.42;3.53;;;4.30;96.90;;;;;;5088483;28;20107;-51
2024/01/22 10:43:45;;;;;;;21.05;4.45;;;4.40;96.90;;;;;;5070681;28;20101;-51
2024/01/22 10:46:11;;;;;;;17.67;3.05;;;4.40;96.80;;;;;;5087969;28;20028;-51
2024/01/22 10:48:36;;;;;;;29.40;4.05;;;4.40;96.80;;;;;;5070443;28;20029;-51
2024/01/22 10:51:02;;;;;;;20.90;3.55;;;4.40;96.80;;;;;;5064362;28;20082;-50
2024/01/22 10:53:28;;;;;;;18.17;3.67;;;4.50;96.80;;;;;;5055481;28;20039;-51
2024/01/22 10:55:59;;;;;;;16.17;3.33;;;4.50;96.80;;;;;;5072472;28;20036;-51
2024/01/22 10:58:27;;;;;;;21.05;3.78;;;4.60;96.70;;;;;;5070111;28;20055;-51
2024/01/22 11:00:57;;;;;;;12.85;3.63;;;4.60;96.70;;;;;;5071808;28;20058;-51
2024/01/22 11:03:22;;;;;;;23.73;3.20;;;4.60;96.80;;;;;;5091353;28;20044;-51
2024/01/22 11:05:48;;;;;;;19.10;3.58;;;4.70;96.90;;;;;;5088214;28;20074;-51
2024/01/22 11:08:14;;;;;;;29.95;4.60;;;4.70;96.90;;;;;;5055349;28;20021;-51
2024/01/22 11:10:40;;;;;;;21.17;4.28;;;4.70;97.00;;;;;;5063743;28;20078;-51
2024/01/22 11:13:05;;;;;;;25.58;3.85;;;4.70;96.90;;;;;;5068769;28;20032;-51
2024/01/22 11:15:31;;;;;;;69.90;10.77;;;4.80;96.80;;;;;;5067996;28;20035;-50
2024/01/22 11:17:56;;;;;;;24.85;5.18;;;4.80;96.80;;;;;;5068330;28;20102;-51
2024/01/22 11:20:23;;;;;;;24.98;4.80;;;4.80;96.70;;;;;;5052535;28;20032;-51
2024/01/22 11:23:01;;;;;;;20.65;3.83;;;4.80;96.80;;;;;;5088763;28;20036;-51
2024/01/22 11:25:27;;;;;;;29.35;4.55;;;4.90;96.70;;;;;;5069911;28;20024;-50
2024/01/22 11:28:10;;;;;;;23.80;4.15;;;4.90;96.70;;;;;;5070607;28;20464;-50
2024/01/22 11:30:37;;;;;;;32.40;5.20;;;5.00;96.70;;;;;;5046364;28;20036;-50
2024/01/22 11:33:20;;;;;;;35.40;5.90;;;5.00;96.80;;;;;;5087918;28;20036;-50
2024/01/22 11:35:46;;;;;;;25.90;4.72;;;5.00;96.80;;;;;;5070258;28;20472;-50
2024/01/22 11:38:11;;;;;;;30.05;4.88;;;5.10;97.00;;;;;;5056189;28;20055;-50
2024/01/22 11:40:54;;;;;;;29.45;4.30;;;5.20;97.10;;;;;;5069898;28;20488;-50
2024/01/22 11:43:20;;;;;;;52.45;6.13;;;5.20;97.00;;;;;;5069664;28;20033;-50
2024/01/22 11:45:47;;;;;;;68.25;8.30;;;5.20;96.80;;;;;;5036596;28;20071;-50
2024/01/22 11:48:16;;;;;;;53.90;6.85;;;5.20;96.70;;;;;;5087294;28;20035;-50
2024/01/22 11:50:42;;;;;;;49.08;6.28;;;5.30;96.90;;;;;;5068273;28;20020;-49
2024/01/22 11:53:08;;;;;;;34.63;5.18;;;5.30;96.70;;;;;;5069427;28;20024;-49
2024/01/22 11:55:38;;;;;;;56.70;7.57;;;5.30;96.70;;;;;;5069185;28;20485;-50
2024/01/22 11:58:09;;;;;;;62.78;7.22;;;5.30;96.90;;;;;;5069713;28;20079;-50
2024/01/22 12:00:34;;;;;;;51.67;7.85;;;5.30;96.90;;;;;;5068656;28;20166;-50
2024/01/22 12:03:01;;;;;;;48.42;7.03;;;5.40;97.10;;;;;;5069836;28;20041;-50
2024/01/22 12:05:26;;;;;;;50.47;6.05;;;5.40;97.10;;;;;;5069471;28;20457;-50
2024/01/22 12:07:52;;;;;;;32.63;6.28;;;5.40;96.90;;;;;;5086218;28;20089;-50
2024/01/22 12:10:21;;;;;;;40.42;6.10;;;5.40;96.80;;;;;;5068455;28;20536;-50
2024/01/22 12:12:50;;;;;;;56.65;6.93;;;5.40;96.80;;;;;;5067950;28;20028;-50
2024/01/22 12:15:15;;;;;;;52.00;7.10;;;5.40;96.80;;;;;;5087305;28;20039;-50
2024/01/22 12:17:44;;;;;;;81.90;9.50;;;5.40;97.00;;;;;;5087901;28;20420;-50
2024/01/22 12:20:10;;;;;;;62.17;8.93;;;5.50;97.10;;;;;;5087084;28;20028;-49
2024/01/22 12:22:35;;;;;;;81.40;10.15;;;5.50;97.10;;;;;;5078265;28;20119;-50
2024/01/22 12:25:06;;;;;;;103.75;10.73;;;5.50;97.10;;;;;;5084713;28;20017;-49
2024/01/22 12:27:32;;;;;;;70.10;7.35;;;5.50;97.10;;;;;;5087881;28;20108;-50
2024/01/22 12:30:05;;;;;;;69.55;9.45;;;5.50;97.00;;;;;;5087455;28;20028;-49
2024/01/22 12:32:31;;;;;;;49.53;6.07;;;5.50;96.90;;;;;;5086871;28;20048;-50
2024/01/22 12:34:57;;;;;;;80.18;9.82;;;5.50;96.90;;;;;;5069821;28;20107;-49
2024/01/22 12:37:25;;;;;;;64.00;7.53;;;5.50;96.80;;;;;;5069186;28;20061;-50
2024/01/22 12:40:04;;;;;;;50.95;6.15;;;5.50;96.90;;;;;;5087337;28;20036;-49
2024/01/22 12:42:29;;;;;;;60.65;8.57;;;5.50;97.00;;;;;;5060312;28;20029;-49
2024/01/22 12:45:01;;;;;;;79.85;9.45;;;5.60;97.00;;;;;;5069037;28;20056;-49